Manokotak, Alaska
Current Conditions -  °F | °C
As of 10:27 AM on Tuesday 21 Oct 2014 (Local Time) from PAMB Reporting Station
Overcast Overcast  
Wind Chill: 15°   Ceiling: 1300
Heat Index: 27°   Visibility: 10mi
Dew Point: 27°   Wind: 14mph
Humidity: 100%   Direction: 50°NE
Pressure: 29.24"   Gusts: NA
Location:  58.98°N, 159.06°W
Report Text: PAMB 211827Z AUTO 05012KT 10SM OVC013 M03/M03 A2924 RMK AO2 TSNO $
Loading
Personal Weather Stations






























Interactive Weather Map
Tropical Storm Tracking
New forecast layout! Learn more

10-Day Weather Forecast

Advertisements
Track Severe Weather on mobile